createdAt,value
2018-07-26T04:00:34.189Z,360.00
2018-07-26T04:01:34.124Z,372.00
2018-07-26T04:02:34.116Z,384.00
2018-07-26T04:03:34.106Z,396.00
2018-07-26T04:04:34.086Z,408.00
2018-07-26T04:05:34.165Z,420.00
2018-07-26T04:06:34.062Z,432.00
2018-07-26T04:07:34.052Z,444.00
2018-07-26T04:08:34.045Z,456.00
2018-07-26T04:09:34.031Z,468.00
2018-07-26T04:10:34.021Z,480.00
2018-07-26T04:11:34.018Z,488.00
2018-07-26T04:12:33.993Z,504.00
2018-07-26T04:13:33.985Z,516.00
2018-07-26T04:14:33.977Z,528.00
2018-07-26T04:15:33.984Z,540.00
2018-07-26T04:16:33.961Z,556.00
2018-07-26T04:17:33.945Z,564.00
2018-07-26T04:18:33.930Z,576.00
2018-07-26T04:19:33.919Z,588.00
2018-07-26T04:20:33.904Z,600.00
2018-07-26T04:21:33.916Z,608.00
2018-07-26T04:22:33.886Z,620.00
2018-07-26T04:23:33.873Z,632.00
2018-07-26T04:24:33.864Z,644.00
2018-07-26T04:25:33.850Z,656.00
2018-07-26T04:26:33.839Z,668.00
2018-07-26T04:27:33.845Z,680.00
2018-07-26T04:28:33.820Z,696.00
2018-07-26T04:29:33.816Z,704.00
2018-07-26T04:30:33.797Z,712.00
2018-07-26T04:31:33.785Z,724.00
2018-07-26T04:32:33.787Z,736.00
2018-07-26T04:33:33.764Z,748.00
2018-07-26T04:34:33.786Z,760.00
2018-07-26T04:35:33.749Z,768.00
2018-07-26T04:36:33.736Z,780.00
2018-07-26T04:37:33.752Z,796.00
2018-07-26T04:38:33.715Z,800.00
2018-07-26T04:39:33.715Z,812.00
2018-07-26T04:40:33.689Z,828.00
2018-07-26T04:41:33.674Z,836.00
2018-07-26T04:42:33.667Z,844.00
2018-07-26T04:43:33.663Z,860.00
2018-07-26T04:44:33.649Z,868.00
2018-07-26T04:45:33.634Z,880.00
2018-07-26T04:46:33.619Z,892.00
2018-07-26T04:47:33.612Z,896.00
2018-07-26T04:48:33.618Z,912.00
2018-07-26T04:49:33.598Z,916.00
2018-07-26T04:50:33.580Z,924.00
2018-07-26T04:51:33.571Z,932.00
2018-07-26T04:52:33.555Z,944.00
2018-07-26T04:53:33.555Z,956.00
2018-07-26T04:54:33.570Z,964.00
2018-07-26T04:55:33.522Z,976.00
2018-07-26T04:56:33.515Z,984.00
2018-07-26T04:57:33.509Z,1000.00
2018-07-26T04:58:33.505Z,1008.00
2018-07-26T04:59:33.478Z,1020.00
2018-07-26T05:00:33.467Z,1028.00
2018-07-26T05:01:33.456Z,1040.00
2018-07-26T05:02:33.450Z,1048.00
2018-07-26T05:03:33.444Z,1056.00
2018-07-26T05:04:33.426Z,1068.00
2018-07-26T05:05:33.416Z,1084.00
2018-07-26T05:06:33.409Z,1096.00
2018-07-26T05:07:33.389Z,1108.00
2018-07-26T05:08:33.411Z,1124.00
2018-07-26T05:09:33.372Z,1136.00
2018-07-26T05:10:33.356Z,1148.00
2018-07-26T05:11:33.346Z,1160.00
2018-07-26T05:12:33.341Z,1172.00
2018-07-26T05:13:33.325Z,1180.00
2018-07-26T05:14:33.330Z,1184.00
2018-07-26T05:15:33.307Z,1192.00
2018-07-26T05:16:33.294Z,1204.00
2018-07-26T05:17:33.282Z,1208.00
2018-07-26T05:18:33.336Z,1220.00
2018-07-26T05:19:33.269Z,1228.00
2018-07-26T05:20:33.247Z,1240.00
2018-07-26T05:21:33.235Z,1252.00
2018-07-26T05:22:33.224Z,1260.00
2018-07-26T05:23:33.228Z,1272.00
2018-07-26T05:24:33.216Z,1276.00
2018-07-26T05:25:33.192Z,1292.00
2018-07-26T05:26:33.182Z,1300.00
2018-07-26T05:27:33.174Z,1312.00
2018-07-26T05:28:33.190Z,1328.00
2018-07-26T05:29:33.165Z,1332.00
2018-07-26T05:30:33.140Z,1344.00
2018-07-26T05:31:33.127Z,1348.00
2018-07-26T05:32:33.130Z,1360.00
2018-07-26T05:33:33.125Z,1372.00
2018-07-26T05:34:33.093Z,1384.00
2018-07-26T05:35:33.095Z,1396.00
2018-07-26T05:36:33.072Z,1408.00
2018-07-26T05:37:33.094Z,1428.00
2018-07-26T05:38:33.047Z,1440.00
2018-07-26T05:39:33.039Z,1448.00
2018-07-26T05:40:33.036Z,1460.00
2018-07-26T05:41:33.020Z,1476.00
2018-07-26T05:42:33.005Z,1488.00
2018-07-26T05:43:32.995Z,1496.00
2018-07-26T05:44:32.986Z,1504.00
2018-07-26T05:45:32.987Z,1524.00
2018-07-26T05:46:32.964Z,1536.00
2018-07-26T05:47:32.963Z,1544.00
2018-07-26T05:48:32.937Z,1556.00
2018-07-26T05:49:32.926Z,1568.00
2018-07-26T05:50:32.927Z,1580.00
2018-07-26T05:51:32.910Z,1592.00
2018-07-26T05:52:32.901Z,1612.00
2018-07-26T05:53:32.899Z,1628.00
2018-07-26T05:54:32.881Z,1644.00
2018-07-26T05:55:32.874Z,1656.00
2018-07-26T05:56:32.854Z,1668.00
2018-07-26T05:57:32.842Z,1680.00
2018-07-26T05:58:32.828Z,1692.00
2018-07-26T05:59:32.832Z,1712.00
2018-07-26T06:00:32.816Z,1724.00
2018-07-26T06:01:32.806Z,1744.00
2018-07-26T06:02:32.785Z,1768.00
2018-07-26T06:03:32.773Z,1808.00
2018-07-26T06:04:32.764Z,1988.00
2018-07-26T06:05:32.764Z,2504.00
2018-07-26T06:06:32.746Z,3352.00
2018-07-26T06:07:32.731Z,4768.00
2018-07-26T06:08:32.722Z,6024.00
2018-07-26T06:09:32.711Z,6772.00
2018-07-26T06:10:32.715Z,6920.00
2018-07-26T06:11:32.691Z,6968.00
2018-07-26T06:12:32.677Z,7004.00
2018-07-26T06:13:32.662Z,7064.00
2018-07-26T06:14:32.655Z,7120.00
2018-07-26T06:15:32.650Z,7156.00
2018-07-26T06:16:32.634Z,7228.00
2018-07-26T06:17:32.626Z,7296.00
2018-07-26T06:18:32.611Z,7352.00
2018-07-26T06:19:32.596Z,7448.00
2018-07-26T06:20:32.628Z,7532.00
2018-07-26T06:21:32.576Z,7608.00
2018-07-26T06:22:32.572Z,7672.00
2018-07-26T06:23:32.557Z,7732.00
2018-07-26T06:24:32.540Z,7832.00
2018-07-26T06:25:32.530Z,7900.00
2018-07-26T06:26:32.531Z,7980.00
2018-07-26T06:27:32.511Z,8084.00
2018-07-26T06:28:32.498Z,8160.00
2018-07-26T06:29:32.485Z,8236.00
2018-07-26T06:30:32.477Z,8320.00
2018-07-26T06:31:32.476Z,8432.00
2018-07-26T06:32:32.455Z,8540.00
2018-07-26T06:33:32.461Z,8656.00
2018-07-26T06:34:32.455Z,8792.00
2018-07-26T06:35:32.423Z,8904.00
2018-07-26T06:36:32.427Z,9008.00
2018-07-26T06:37:32.398Z,9116.00
2018-07-26T06:38:32.387Z,9244.00
2018-07-26T06:39:32.472Z,9356.00
2018-07-26T06:40:32.368Z,9432.00
2018-07-26T06:41:32.372Z,9568.00
2018-07-26T06:42:32.346Z,9716.00
2018-07-26T06:43:32.338Z,9872.00
2018-07-26T06:44:32.322Z,9748.00
2018-07-26T06:45:32.309Z,9732.00
2018-07-26T06:46:32.313Z,9676.00
2018-07-26T06:47:32.285Z,9736.00
2018-07-26T06:48:32.282Z,9636.00
2018-07-26T06:49:32.269Z,9660.00
2018-07-26T06:50:32.258Z,9636.00
2018-07-26T06:51:32.276Z,9692.00
2018-07-26T06:52:32.230Z,9640.00
2018-07-26T06:53:32.222Z,9676.00
2018-07-26T06:54:32.209Z,9668.00
2018-07-26T06:55:32.198Z,9688.00
2018-07-26T06:56:32.202Z,9712.00
2018-07-26T06:57:32.181Z,9764.00
2018-07-26T06:58:32.168Z,9804.00
2018-07-26T06:59:32.155Z,9880.00
2018-07-26T07:00:32.149Z,9924.00
2018-07-26T07:01:32.154Z,9968.00
2018-07-26T07:02:32.127Z,10056.00
2018-07-26T07:03:32.112Z,10140.00
2018-07-26T07:04:32.114Z,10192.00
2018-07-26T07:05:32.092Z,10256.00
2018-07-26T07:06:32.119Z,10368.00
2018-07-26T07:07:32.079Z,10560.00
2018-07-26T07:08:32.061Z,10744.00
2018-07-26T07:09:32.049Z,11036.00
2018-07-26T07:10:32.038Z,13536.00
2018-07-26T07:11:32.029Z,23200.00
2018-07-26T07:12:32.029Z,35040.00
2018-07-26T07:13:32.010Z,36096.00
2018-07-26T07:14:31.998Z,22336.00
2018-07-26T07:15:31.986Z,12432.00
2018-07-26T07:16:31.973Z,12296.00
2018-07-26T07:17:31.975Z,12668.00
2018-07-26T07:18:31.953Z,12524.00
2018-07-26T07:19:31.942Z,12776.00
2018-07-26T07:20:31.962Z,13600.00
2018-07-26T07:21:31.923Z,17728.00
2018-07-26T07:22:31.921Z,39840.00
2018-07-26T07:23:31.898Z,59328.00
2018-07-26T07:24:31.890Z,62432.00
2018-07-26T07:25:31.879Z,68320.00
2018-07-26T07:26:31.866Z,68864.00
2018-07-26T07:27:31.872Z,68640.00
2018-07-26T07:28:31.847Z,68832.00
2018-07-26T07:29:31.835Z,68512.00
2018-07-26T07:30:31.824Z,68320.00
2018-07-26T07:31:31.820Z,59936.00
2018-07-26T07:32:31.818Z,31168.00
2018-07-26T07:33:31.797Z,15744.00
2018-07-26T07:34:31.788Z,14592.00
2018-07-26T07:35:31.797Z,14432.00
2018-07-26T07:36:31.760Z,14496.00
2018-07-26T07:37:31.784Z,14720.00
2018-07-26T07:38:31.740Z,14784.00
2018-07-26T07:39:31.728Z,14752.00
2018-07-26T07:40:31.717Z,14784.00
2018-07-26T07:41:31.707Z,14624.00
2018-07-26T07:42:31.696Z,14976.00
2018-07-26T07:43:31.697Z,15104.00
2018-07-26T07:44:31.677Z,15328.00
2018-07-26T07:45:31.664Z,15008.00
2018-07-26T07:46:31.668Z,14912.00
2018-07-26T07:47:31.684Z,14976.00
2018-07-26T07:48:31.645Z,14752.00
2018-07-26T07:49:31.627Z,14976.00
2018-07-26T07:50:31.610Z,15072.00
2018-07-26T07:51:31.600Z,15200.00
2018-07-26T07:52:31.592Z,15040.00
2018-07-26T07:53:31.592Z,15168.00
2018-07-26T07:54:31.571Z,15104.00
2018-07-26T07:55:31.556Z,15328.00
2018-07-26T07:56:31.547Z,15264.00
2018-07-26T07:57:31.537Z,15360.00
2018-07-26T07:58:31.541Z,15360.00
2018-07-26T07:59:31.560Z,15552.00
2018-07-26T08:00:31.504Z,15680.00
2018-07-26T08:01:31.492Z,15808.00
2018-07-26T08:02:31.482Z,15936.00
2018-07-26T08:03:31.482Z,16192.00
2018-07-26T08:04:31.462Z,16256.00
2018-07-26T08:05:31.455Z,16352.00
2018-07-26T08:06:31.473Z,16928.00
2018-07-26T08:07:31.429Z,18304.00
2018-07-26T08:08:31.436Z,18592.00
2018-07-26T08:09:31.407Z,18080.00
2018-07-26T08:10:31.397Z,17792.00
2018-07-26T08:11:31.395Z,18048.00
2018-07-26T08:12:31.450Z,18240.00
2018-07-26T08:13:31.368Z,74368.00
2018-07-26T08:14:31.363Z,18432.00
2018-07-26T08:15:31.343Z,18496.00
2018-07-26T08:16:31.333Z,17824.00
2018-07-26T08:17:31.326Z,10720.00
2018-07-26T08:18:31.311Z,78144.00
2018-07-26T08:19:31.310Z,73248.00
2018-07-26T08:20:31.288Z,76128.00
2018-07-26T08:21:31.282Z,75360.00
2018-07-26T08:22:31.270Z,76576.00
2018-07-26T08:23:31.259Z,74176.00
2018-07-26T08:24:31.256Z,78240.00
2018-07-26T08:25:31.235Z,77440.00
2018-07-26T08:26:31.226Z,77408.00
2018-07-26T08:27:31.215Z,78496.00
2018-07-26T08:28:31.204Z,78848.00
2018-07-26T08:29:31.261Z,79520.00
2018-07-26T08:30:31.188Z,78976.00
2018-07-26T08:31:31.174Z,78688.00
2018-07-26T08:32:31.162Z,78304.00
2018-07-26T08:33:31.151Z,77056.00
2018-07-26T08:34:31.157Z,77248.00
2018-07-26T08:35:31.130Z,78688.00
2018-07-26T08:36:31.120Z,78080.00
2018-07-26T08:37:31.115Z,79328.00
2018-07-26T08:38:31.103Z,80928.00
2018-07-26T08:39:31.101Z,81344.00
2018-07-26T08:40:31.081Z,81312.00
2018-07-26T08:41:31.068Z,82720.00
2018-07-26T08:42:31.054Z,82560.00
2018-07-26T08:43:31.070Z,82400.00
2018-07-26T08:44:31.049Z,85120.00
2018-07-26T08:45:31.022Z,85888.00
2018-07-26T08:46:31.013Z,86336.00
2018-07-26T08:47:31.004Z,87008.00
2018-07-26T08:48:30.991Z,88704.00
2018-07-26T08:49:30.993Z,90848.00
2018-07-26T08:50:30.973Z,93696.00
2018-07-26T08:51:30.957Z,94304.00
2018-07-26T08:52:30.949Z,94528.00
2018-07-26T08:53:30.939Z,93280.00
2018-07-26T08:54:30.941Z,97152.00
2018-07-26T08:55:30.917Z,98496.00
2018-07-26T08:56:30.907Z,104800.00
2018-07-26T08:57:30.895Z,112640.00
2018-07-26T08:58:30.885Z,115648.00
2018-07-26T08:59:30.884Z,38880.00
2018-07-26T09:00:30.864Z,12152.00
2018-07-26T09:01:30.861Z,122016.00
2018-07-26T09:02:30.843Z,122944.00
2018-07-26T09:03:30.837Z,122944.00
2018-07-26T09:04:30.832Z,124288.00
2018-07-26T09:05:30.925Z,124800.00
2018-07-26T09:06:30.805Z,126912.00
2018-07-26T09:07:30.792Z,128608.00
2018-07-26T09:08:30.780Z,129504.00
2018-07-26T09:09:30.782Z,129184.00
2018-07-26T09:10:30.772Z,133568.00
2018-07-26T09:11:30.754Z,134272.00
2018-07-26T09:12:30.736Z,134976.00
2018-07-26T09:13:30.807Z,139936.00
2018-07-26T09:14:30.752Z,141376.00
2018-07-26T09:15:30.717Z,140384.00
2018-07-26T09:16:30.703Z,138112.00
2018-07-26T09:17:30.701Z,132832.00
2018-07-26T09:18:30.675Z,130944.00
2018-07-26T09:19:30.676Z,130464.00
2018-07-26T09:20:31.098Z,131360.00
2018-07-26T09:21:30.642Z,132448.00
2018-07-26T09:22:30.636Z,131392.00
2018-07-26T09:23:30.620Z,134496.00
2018-07-26T09:24:30.657Z,135840.00
2018-07-26T09:25:30.609Z,131040.00
2018-07-26T09:26:30.597Z,133504.00
2018-07-26T09:27:30.582Z,135296.00
2018-07-26T09:28:30.564Z,139392.00
2018-07-26T09:29:30.555Z,138560.00
2018-07-26T09:30:30.565Z,134240.00
2018-07-26T09:31:30.540Z,131072.00
2018-07-26T09:32:30.525Z,131232.00
2018-07-26T09:33:30.516Z,136320.00
2018-07-26T09:34:30.501Z,137728.00
2018-07-26T09:35:30.567Z,140096.00
2018-07-26T09:36:30.483Z,144544.00
2018-07-26T09:37:30.469Z,140192.00
2018-07-26T09:38:30.459Z,138560.00
2018-07-26T09:39:30.452Z,148672.00
2018-07-26T09:40:30.449Z,146464.00
2018-07-26T09:41:30.428Z,142400.00
2018-07-26T09:42:30.416Z,147392.00
2018-07-26T09:43:30.406Z,140000.00
2018-07-26T09:44:30.396Z,127264.00
2018-07-26T09:45:30.399Z,125152.00
2018-07-26T09:46:30.373Z,136832.00
2018-07-26T09:47:30.363Z,157568.00
2018-07-26T09:48:30.358Z,149248.00
2018-07-26T09:49:30.346Z,133280.00
2018-07-26T09:50:30.333Z,124960.00
2018-07-26T09:51:30.335Z,113728.00
2018-07-26T09:52:30.319Z,107904.00
2018-07-26T09:53:30.300Z,104160.00
2018-07-26T09:54:30.290Z,103648.00
2018-07-26T09:55:30.283Z,104384.00
2018-07-26T09:56:30.284Z,102208.00
2018-07-26T09:57:30.291Z,101440.00
2018-07-26T09:58:30.246Z,95648.00
2018-07-26T09:59:30.243Z,94752.00
2018-07-26T10:00:30.226Z,93056.00
2018-07-26T10:01:30.229Z,91584.00
2018-07-26T10:02:30.248Z,91584.00
2018-07-26T10:03:30.196Z,93920.00
2018-07-26T10:04:30.185Z,89856.00
2018-07-26T10:05:30.174Z,88480.00
2018-07-26T10:06:30.176Z,84960.00
2018-07-26T10:07:30.153Z,81856.00
2018-07-26T10:08:30.146Z,80576.00
2018-07-26T10:09:30.133Z,56672.00
2018-07-26T10:10:30.123Z,15904.00
2018-07-26T10:11:30.125Z,6876.00
2018-07-26T10:12:31.868Z,5844.00
2018-07-26T10:13:30.091Z,5248.00
2018-07-26T10:14:30.081Z,4816.00
2018-07-26T10:15:30.069Z,4500.00
2018-07-26T10:16:30.074Z,4292.00
2018-07-26T10:17:30.067Z,4080.00
2018-07-26T10:18:30.068Z,3820.00
2018-07-26T10:19:30.024Z,3604.00
2018-07-26T10:20:30.018Z,3456.00
2018-07-26T10:21:30.023Z,3432.00
2018-07-26T10:22:29.998Z,3320.00
2018-07-26T10:23:29.985Z,3276.00
2018-07-26T10:24:29.973Z,3336.00
2018-07-26T10:25:29.969Z,3408.00
2018-07-26T10:26:29.966Z,3364.00
2018-07-26T10:27:29.940Z,3304.00
2018-07-26T10:28:29.946Z,3264.00
2018-07-26T10:29:29.922Z,3252.00
2018-07-26T10:30:29.909Z,3260.00
2018-07-26T10:31:29.908Z,3332.00
2018-07-26T10:32:29.886Z,3356.00
2018-07-26T10:33:29.876Z,3292.00
2018-07-26T10:34:29.864Z,3316.00
2018-07-26T10:35:29.858Z,3364.00
2018-07-26T10:36:29.853Z,3388.00
2018-07-26T10:37:29.868Z,3208.00
2018-07-26T10:38:29.823Z,3172.00
2018-07-26T10:39:29.917Z,3168.00
2018-07-26T10:40:29.801Z,3164.00
2018-07-26T10:41:29.791Z,3180.00
2018-07-26T10:42:29.813Z,3232.00
2018-07-26T10:43:29.776Z,3168.00
2018-07-26T10:44:29.783Z,3228.00
2018-07-26T10:45:29.898Z,3120.00
2018-07-26T10:46:29.745Z,3044.00
2018-07-26T10:47:29.738Z,3052.00
2018-07-26T10:48:29.724Z,3136.00
2018-07-26T10:49:29.708Z,3228.00
2018-07-26T10:50:29.701Z,3280.00
2018-07-26T10:51:29.689Z,3752.00
2018-07-26T10:52:29.683Z,4288.00
2018-07-26T10:53:29.671Z,4300.00
2018-07-26T10:54:29.658Z,3256.00
2018-07-26T10:55:29.654Z,3112.00
2018-07-26T10:56:29.634Z,2936.00
2018-07-26T10:57:29.638Z,3016.00
2018-07-26T10:58:29.610Z,3136.00
2018-07-26T10:59:29.599Z,3188.00
2018-07-26T11:00:29.589Z,3184.00
2018-07-26T11:01:29.576Z,3180.00
2018-07-26T11:02:29.574Z,2952.00
2018-07-26T11:03:29.562Z,2996.00
2018-07-26T11:04:29.549Z,3184.00
2018-07-26T11:05:29.535Z,3356.00
2018-07-26T11:06:29.527Z,3924.00
2018-07-26T11:07:29.540Z,3632.00
2018-07-26T11:08:29.513Z,3524.00
2018-07-26T11:09:29.506Z,3232.00
2018-07-26T11:10:29.487Z,3512.00
2018-07-26T11:11:29.472Z,3428.00
2018-07-26T11:12:29.472Z,2668.00
2018-07-26T11:13:29.460Z,1980.00
2018-07-26T11:14:29.444Z,2128.00
2018-07-26T11:15:29.429Z,2576.00
2018-07-26T11:16:29.467Z,2632.00
2018-07-26T11:17:29.429Z,2652.00
2018-07-26T11:18:29.394Z,2548.00
2018-07-26T11:19:29.385Z,2508.00
2018-07-26T11:20:29.379Z,2544.00
2018-07-26T11:21:29.369Z,2564.00
2018-07-26T11:22:29.352Z,2560.00
2018-07-26T11:23:29.355Z,2564.00
2018-07-26T11:24:29.334Z,2544.00
2018-07-26T11:25:29.347Z,2532.00
2018-07-26T11:26:29.310Z,2508.00
2018-07-26T11:27:29.299Z,2468.00
2018-07-26T11:28:29.302Z,2372.00
2018-07-26T11:29:29.279Z,2316.00
2018-07-26T11:30:29.268Z,2316.00
2018-07-26T11:31:29.257Z,2320.00
2018-07-26T11:32:29.300Z,2352.00
2018-07-26T11:33:29.247Z,2364.00
2018-07-26T11:34:29.224Z,2424.00
2018-07-26T11:35:29.215Z,2524.00
2018-07-26T11:36:29.202Z,2736.00
2018-07-26T11:37:29.193Z,2944.00
2018-07-26T11:38:29.194Z,3056.00
2018-07-26T11:39:29.175Z,2824.00
2018-07-26T11:40:29.163Z,2724.00
2018-07-26T11:41:29.204Z,2744.00
2018-07-26T11:42:29.139Z,2800.00
2018-07-26T11:43:29.158Z,2740.00
2018-07-26T11:44:29.120Z,2768.00
2018-07-26T11:45:29.110Z,2564.00
2018-07-26T11:46:29.192Z,2388.00
2018-07-26T11:47:29.088Z,2472.00
2018-07-26T11:48:29.085Z,2592.00
2018-07-26T11:49:29.067Z,2580.00
2018-07-26T11:50:29.054Z,2484.00
2018-07-26T11:51:29.041Z,2352.00
2018-07-26T11:52:29.068Z,1992.00
2018-07-26T11:53:29.069Z,2008.00
2018-07-26T11:54:29.010Z,2468.00
2018-07-26T11:55:29.005Z,2772.00
2018-07-26T11:56:28.989Z,2740.00
2018-07-26T11:57:28.978Z,2468.00
2018-07-26T11:58:28.980Z,2612.00
2018-07-26T11:59:28.959Z,3080.00
2018-07-26T12:00:28.947Z,3376.00
2018-07-26T12:01:29.053Z,3012.00
2018-07-26T12:02:29.007Z,2784.00
2018-07-26T12:03:28.997Z,2548.00
2018-07-26T12:04:28.903Z,2448.00
2018-07-26T12:05:28.893Z,2556.00
2018-07-26T12:06:28.884Z,2560.00
2018-07-26T12:07:28.905Z,2660.00
2018-07-26T12:08:28.862Z,2736.00
2018-07-26T12:09:28.881Z,2560.00
2018-07-26T12:10:28.840Z,2508.00
2018-07-26T12:11:28.863Z,2584.00
2018-07-26T12:12:28.819Z,2600.00
2018-07-26T12:13:28.828Z,2512.00
2018-07-26T12:14:28.897Z,2524.00
2018-07-26T12:15:28.800Z,2420.00
2018-07-26T12:16:28.819Z,2512.00
2018-07-26T12:17:29.203Z,2704.00
2018-07-26T12:18:28.838Z,2524.00
2018-07-26T12:19:29.047Z,2352.00
2018-07-26T12:20:28.849Z,2212.00
2018-07-26T12:21:28.804Z,2872.00
2018-07-26T12:22:28.749Z,3220.00
2018-07-26T12:23:28.765Z,3052.00
2018-07-26T12:24:28.692Z,2864.00
2018-07-26T12:25:28.820Z,2964.00
2018-07-26T12:26:28.696Z,2912.00
2018-07-26T12:27:28.658Z,2740.00
2018-07-26T12:28:28.654Z,2624.00
2018-07-26T12:29:28.638Z,2492.00
2018-07-26T12:30:28.638Z,2408.00
2018-07-26T12:31:28.619Z,2268.00
2018-07-26T12:32:28.608Z,2200.00
2018-07-26T12:33:28.593Z,2152.00
2018-07-26T12:34:28.583Z,2108.00
2018-07-26T12:35:28.581Z,2076.00
2018-07-26T12:36:28.563Z,2012.00
2018-07-26T12:37:28.551Z,2084.00
2018-07-26T12:38:28.541Z,2336.00
2018-07-26T12:39:28.529Z,2960.00
2018-07-26T12:40:28.528Z,2888.00
2018-07-26T12:41:28.572Z,2752.00
2018-07-26T12:42:28.498Z,2536.00
2018-07-26T12:43:28.491Z,2148.00
2018-07-26T12:44:28.477Z,2064.00
2018-07-26T12:45:28.484Z,2128.00
2018-07-26T12:46:28.457Z,1980.00
2018-07-26T12:47:28.507Z,1940.00
2018-07-26T12:48:28.436Z,1920.00
2018-07-26T12:49:28.422Z,1848.00
2018-07-26T12:50:28.423Z,1840.00
2018-07-26T12:51:28.401Z,1852.00
2018-07-26T12:52:28.393Z,1896.00
2018-07-26T12:53:28.380Z,1944.00
2018-07-26T12:54:28.370Z,2020.00
2018-07-26T12:55:28.399Z,2032.00
2018-07-26T12:56:28.347Z,2060.00
2018-07-26T12:57:28.338Z,2080.00
2018-07-26T12:58:28.327Z,2192.00
2018-07-26T12:59:28.314Z,2404.00
2018-07-26T13:00:28.306Z,2712.00
2018-07-26T13:01:28.321Z,2508.00
2018-07-26T13:02:28.292Z,2376.00
2018-07-26T13:03:28.273Z,2608.00
2018-07-26T13:04:28.264Z,2712.00
2018-07-26T13:05:28.260Z,2352.00
2018-07-26T13:06:28.258Z,1992.00
2018-07-26T13:07:28.230Z,1792.00
2018-07-26T13:08:28.223Z,1704.00
2018-07-26T13:09:28.212Z,1712.00
2018-07-26T13:10:28.199Z,1532.00
2018-07-26T13:11:28.203Z,1676.00
2018-07-26T13:12:28.208Z,1904.00
2018-07-26T13:13:28.169Z,2000.00
2018-07-26T13:14:28.156Z,2052.00
2018-07-26T13:15:28.147Z,2080.00
2018-07-26T13:16:28.148Z,2100.00
2018-07-26T13:17:28.125Z,2188.00
2018-07-26T13:18:28.116Z,2488.00
2018-07-26T13:19:28.102Z,2988.00
2018-07-26T13:20:28.094Z,3164.00
2018-07-26T13:21:28.098Z,2988.00
2018-07-26T13:22:28.071Z,2880.00
2018-07-26T13:23:28.062Z,2600.00
2018-07-26T13:24:28.050Z,2588.00
2018-07-26T13:25:28.040Z,2356.00
2018-07-26T13:26:28.042Z,2024.00
2018-07-26T13:27:28.024Z,1868.00
2018-07-26T13:28:28.008Z,1788.00
2018-07-26T13:29:27.996Z,1672.00
2018-07-26T13:30:27.990Z,1604.00
2018-07-26T13:31:27.988Z,1592.00
2018-07-26T13:32:27.964Z,1620.00
2018-07-26T13:33:27.955Z,1656.00
2018-07-26T13:34:27.942Z,1652.00
2018-07-26T13:35:27.934Z,1636.00
2018-07-26T13:36:27.937Z,1612.00
2018-07-26T13:37:27.917Z,1624.00
2018-07-26T13:38:27.903Z,1632.00
2018-07-26T13:39:27.894Z,1648.00
2018-07-26T13:40:27.882Z,1700.00
2018-07-26T13:41:27.869Z,1792.00
2018-07-26T13:42:27.873Z,1852.00
2018-07-26T13:43:27.851Z,1920.00
2018-07-26T13:44:27.849Z,1908.00
2018-07-26T13:45:27.825Z,1904.00
2018-07-26T13:46:27.817Z,2092.00
2018-07-26T13:47:27.814Z,2380.00
2018-07-26T13:48:27.796Z,3096.00
2018-07-26T13:49:27.782Z,3108.00
2018-07-26T13:50:27.781Z,3068.00
2018-07-26T13:51:27.762Z,2748.00
2018-07-26T13:52:27.866Z,2204.00
2018-07-26T13:53:27.747Z,1892.00
2018-07-26T13:54:27.734Z,1684.00
2018-07-26T13:55:27.724Z,1496.00
2018-07-26T13:56:27.712Z,1424.00
2018-07-26T13:57:27.710Z,1384.00
2018-07-26T13:58:27.717Z,1352.00
2018-07-26T13:59:27.677Z,1336.00
2018-07-26T14:00:27.667Z,1328.00
2018-07-26T14:01:27.658Z,1320.00
2018-07-26T14:02:27.687Z,1292.00
2018-07-26T14:03:27.633Z,1284.00
2018-07-26T14:04:27.625Z,1288.00
2018-07-26T14:05:27.617Z,1284.00
2018-07-26T14:06:27.602Z,1280.00
2018-07-26T14:07:27.599Z,1220.00
2018-07-26T14:08:27.579Z,1272.00
2018-07-26T14:09:27.581Z,1320.00
2018-07-26T14:10:27.563Z,1340.00
2018-07-26T14:11:27.550Z,1328.00
2018-07-26T14:12:27.555Z,1372.00
2018-07-26T14:13:27.528Z,1672.00
2018-07-26T14:14:27.517Z,1892.00
2018-07-26T14:15:27.594Z,1544.00
2018-07-26T14:16:27.495Z,1276.00
2018-07-26T14:17:27.504Z,1144.00
2018-07-26T14:18:27.475Z,1336.00
2018-07-26T14:19:27.465Z,1656.00
2018-07-26T14:20:27.454Z,1848.00
2018-07-26T14:21:27.447Z,2096.00
2018-07-26T14:22:27.475Z,2080.00
2018-07-26T14:23:27.435Z,1836.00
2018-07-26T14:24:27.412Z,1640.00
2018-07-26T14:25:27.402Z,1428.00
2018-07-26T14:26:27.390Z,1136.00
2018-07-26T14:27:27.379Z,1152.00
2018-07-26T14:28:27.379Z,1232.00
2018-07-26T14:29:27.395Z,1284.00
2018-07-26T14:30:27.352Z,1360.00
2018-07-26T14:31:27.343Z,1288.00
2018-07-26T14:32:27.328Z,1232.00
2018-07-26T14:33:27.332Z,1216.00
2018-07-26T14:34:27.306Z,1228.00
2018-07-26T14:35:27.298Z,1232.00
2018-07-26T14:36:27.285Z,1212.00
2018-07-26T14:37:27.276Z,1212.00
2018-07-26T14:38:27.274Z,1204.00
2018-07-26T14:39:27.255Z,1160.00
2018-07-26T14:40:27.241Z,1116.00
2018-07-26T14:41:27.231Z,1096.00
2018-07-26T14:42:27.220Z,1080.00
2018-07-26T14:43:27.239Z,1052.00
2018-07-26T14:44:27.199Z,1056.00
2018-07-26T14:45:27.187Z,1064.00
2018-07-26T14:46:27.178Z,1120.00
2018-07-26T14:47:27.169Z,1196.00
2018-07-26T14:48:27.158Z,1176.00
2018-07-26T14:49:27.159Z,1060.00
2018-07-26T14:50:27.132Z,1012.00
2018-07-26T14:51:27.122Z,1000.00
2018-07-26T14:52:27.114Z,1024.00
2018-07-26T14:53:27.102Z,1080.00
2018-07-26T14:54:27.151Z,1112.00
2018-07-26T14:55:27.082Z,1152.00
2018-07-26T14:56:27.065Z,1300.00
2018-07-26T14:57:27.054Z,1456.00
2018-07-26T14:58:27.046Z,1560.00
2018-07-26T14:59:27.051Z,1528.00
2018-07-26T15:00:27.025Z,1356.00
2018-07-26T15:01:27.011Z,1108.00
2018-07-26T15:02:27.000Z,1004.00
2018-07-26T15:03:26.987Z,988.00
2018-07-26T15:04:26.991Z,976.00
2018-07-26T15:05:26.968Z,972.00
2018-07-26T15:06:26.958Z,976.00
2018-07-26T15:07:26.948Z,976.00
2018-07-26T15:08:26.932Z,956.00
2018-07-26T15:09:26.933Z,940.00
2018-07-26T15:10:26.912Z,940.00
2018-07-26T15:11:26.896Z,936.00
2018-07-26T15:12:26.892Z,944.00
2018-07-26T15:13:26.876Z,936.00
2018-07-26T15:14:26.876Z,916.00
2018-07-26T15:15:26.851Z,900.00
2018-07-26T15:16:26.844Z,880.00
2018-07-26T15:17:26.832Z,848.00
2018-07-26T15:18:26.819Z,796.00
2018-07-26T15:19:26.826Z,816.00
2018-07-26T15:20:26.807Z,836.00
2018-07-26T15:21:26.792Z,848.00
2018-07-26T15:22:26.777Z,828.00
2018-07-26T15:23:26.767Z,832.00
2018-07-26T15:25:58.956Z,944.00
2018-07-26T15:28:02.404Z,1040.00
2018-07-26T15:29:02.350Z,1024.00
2018-07-26T15:30:02.354Z,980.00
2018-07-26T15:31:02.347Z,944.00
2018-07-26T15:32:02.322Z,908.00
2018-07-26T15:33:02.304Z,904.00
2018-07-26T15:34:02.296Z,892.00
2018-07-26T15:35:02.293Z,884.00
2018-07-26T15:36:02.268Z,884.00
2018-07-26T15:37:02.263Z,892.00
2018-07-26T15:38:02.246Z,908.00
2018-07-26T15:39:02.243Z,968.00
2018-07-26T15:40:02.257Z,980.00
2018-07-26T15:41:02.217Z,992.00
2018-07-26T15:42:02.211Z,1024.00
2018-07-26T15:43:02.193Z,1044.00
2018-07-26T15:44:02.184Z,1104.00
2018-07-26T15:45:02.189Z,1068.00
2018-07-26T15:46:02.161Z,960.00
2018-07-26T15:47:02.208Z,884.00
2018-07-26T15:48:02.140Z,848.00
2018-07-26T15:49:02.129Z,844.00
2018-07-26T15:50:02.164Z,844.00
2018-07-26T15:51:02.120Z,848.00
2018-07-26T15:52:02.095Z,820.00
2018-07-26T15:53:02.085Z,848.00
2018-07-26T15:54:02.079Z,844.00
2018-07-26T15:55:02.061Z,840.00
2018-07-26T15:56:02.068Z,856.00
2018-07-26T15:57:02.046Z,860.00
2018-07-26T15:58:02.029Z,860.00
2018-07-26T15:59:02.035Z,868.00
2018-07-26T16:00:02.009Z,892.00
2018-07-26T16:01:02.010Z,888.00
2018-07-26T16:02:01.989Z,880.00
2018-07-26T16:03:01.976Z,888.00
2018-07-26T16:04:01.967Z,940.00